Flight Track Log - Related Links

Times and Time Zones

All times are in EDT time to prevent confusion due to time zone crossing. See the UPS219 flight status page for this flight to view local times or setup timezone preferences in your user account.

Time Position Orientation Groundspeed Altitude Reporting Facility
EDT Latitude Longitude Course Direction KTS MPH feet Rate Location/Type
Sun 04:40:32 AM 38.1620 -85.7400 165° South 144 166 1,700  Level FlightAware ADS-B
Sun 04:40:57 AM 38.1450 -85.7340 164° South 156 180 3,000 2,618 Climbing FlightAware ADS-B
Sun 04:41:27 AM 38.1200 -85.7230 161° South 204 235 4,100 2,182 Climbing FlightAware ADS-B
Sun 04:41:52 AM 38.0960 -85.7130 162° South 245 282 5,000 2,550 Climbing FlightAware ADS-B
Sun 04:42:07 AM 38.0820 -85.6950 135° Southeast 273 314 5,800 3,000 Climbing FlightAware ADS-B
Sun 04:42:22 AM 38.0760 -85.6730 109° East 291 335 6,500 3,200 Climbing FlightAware ADS-B
Sun 04:42:52 AM 38.0860 -85.6210 76° East 304 350 8,200 3,333 Climbing FlightAware ADS-B
Sun 04:43:07 AM 38.1000 -85.6020 47° Northeast 307 353 9,000 3,360 Climbing FlightAware ADS-B
Sun 04:43:17 AM 38.1140 -85.5910 32° Northeast 309 356 9,600 3,300 Climbing FlightAware ADS-B
Sun 04:43:47 AM 38.1480 -85.5550 40° Northeast 334 384 11,200 2,743 Climbing FlightAware ADS-B
Sun 04:44:27 AM 38.1820 -85.4800 60° Northeast 397 457 12,800 3,671 Climbing FlightAware ADS-B
Sun 04:45:12 AM 38.2160 -85.3870 65° Northeast 400 460 16,400 4,659 Climbing FlightAware ADS-B
Sun 04:45:52 AM 38.2460 -85.2990 67° East 403 464 19,400 3,750 Climbing FlightAware ADS-B
Sun 04:46:32 AM 38.2770 -85.2120 66° East 426 490 21,400 3,176 Climbing FlightAware ADS-B
Sun 04:47:17 AM 38.3160 -85.1050 65° Northeast 440 506 23,900 2,894 Climbing FlightAware ADS-B
Sun 04:47:57 AM 38.3480 -85.0140 66° East 459 528 25,500 2,682 Climbing FlightAware ADS-B
Sun 04:48:42 AM 38.3890 -84.8990 66° East 468 539 27,700 2,700 Climbing FlightAware ADS-B
Sun 04:49:17 AM 38.4180 -84.8150 66° East 477 549 29,100 2,250 Climbing FlightAware ADS-B
Sun 04:50:02 AM 38.4610 -84.6940 66° East 492 566 30,700 1,314 Climbing FlightAware ADS-B
Sun 04:51:02 AM 38.5140 -84.5450 66° East 501 577 31,400 1,453 Climbing FlightAware ADS-B
Sun 04:51:37 AM 38.5490 -84.4410 67° East 514 592 33,000 1,129 Climbing FlightAware ADS-B
Sun 04:52:27 AM 38.5900 -84.3230 66° East 514 592 33,000  Level FlightAware ADS-B
Sun 04:53:07 AM 38.6230 -84.2290 66° East 514 592 33,000  Level FlightAware ADS-B
Sun 04:53:47 AM 38.6560 -84.1340 66° East 514 592 33,000 2,824 Level FlightAware ADS-B
Sun 04:54:32 AM 38.7210 -83.9420 66° East 519 597 37,000 2,824 Climbing FlightAware ADS-B
Sun 04:55:12 AM 38.7620 -83.8220 66° East 522 601 37,000  Level FlightAware ADS-B
Sun 04:55:57 AM 38.8050 -83.6950 66° East 522 601 37,000  Level FlightAware ADS-B
Sun 04:56:37 AM 38.8430 -83.5830 66° East 523 602 37,000  Level FlightAware ADS-B
Sun 04:57:17 AM 38.8820 -83.4690 66° East 522 601 37,000  Level FlightAware ADS-B
Sun 04:58:02 AM 38.9240 -83.3420 67° East 522 601 37,000  Level FlightAware ADS-B
Sun 04:58:42 AM 38.9620 -83.2280 67° East 519 597 37,000  Level FlightAware ADS-B
Sun 04:59:27 AM 39.0050 -83.1000 67° East 518 596 37,000  Level FlightAware ADS-B
Sun 05:00:07 AM 39.0430 -82.9850 67° East 518 596 37,000  Level FlightAware ADS-B
Sun 05:00:52 AM 39.0840 -82.8610 67° East 518 596 37,000  Level FlightAware ADS-B
Sun 05:01:32 AM 39.1230 -82.7420 67° East 515 593 37,000  Level FlightAware ADS-B
Sun 05:02:12 AM 39.1600 -82.6290 67° East 516 594 37,000  Level FlightAware ADS-B
Sun 05:02:52 AM 39.1950 -82.5210 67° East 516 594 37,000  Level FlightAware ADS-B
Sun 05:03:37 AM 39.2380 -82.3890 67° East 516 594 37,000  Level FlightAware ADS-B
Sun 05:04:22 AM 39.2790 -82.2630 67° East 517 595 37,000  Level FlightAware ADS-B
Sun 05:04:57 AM 39.3120 -82.1600 67° East 518 596 37,000  Level FlightAware ADS-B
Sun 05:05:42 AM 39.3520 -82.0340 68° East 520 598 37,000  Level FlightAware ADS-B
Sun 05:06:27 AM 39.3940 -81.9020 68° East 520 598 37,000  Level FlightAware ADS-B
Sun 05:07:07 AM 39.4300 -81.7890 68° East 521 600 37,000  Level FlightAware ADS-B
Sun 05:07:47 AM 39.4670 -81.6720 68° East 522 601 37,000  Level FlightAware ADS-B
Sun 05:08:32 AM 39.5080 -81.5440 67° East 523 602 37,000  Level FlightAware ADS-B
Sun 05:09:12 AM 39.5440 -81.4280 68° East 525 604 37,000  Level FlightAware ADS-B
Sun 05:09:57 AM 39.5850 -81.2950 68° East 525 604 37,000  Level FlightAware ADS-B
Sun 05:10:37 AM 39.6220 -81.1780 68° East 527 606 37,000  Level FlightAware ADS-B
Sun 05:11:22 AM 39.6600 -81.0470 69° East 530 610 37,000  Level FlightAware ADS-B
Sun 05:12:02 AM 39.6820 -80.9240 77° East 532 612 37,000  Level FlightAware ADS-B
Sun 05:12:42 AM 39.6960 -80.7950 82° East 533 613 37,000  Level FlightAware ADS-B
Sun 05:13:27 AM 39.7100 -80.6590 82° East 533 613 37,000  Level FlightAware ADS-B
Sun 05:14:07 AM 39.7240 -80.5250 82° East 534 615 37,000  Level FlightAware ADS-B
Sun 05:14:47 AM 39.7360 -80.3960 83° East 534 615 37,000  Level FlightAware ADS-B
Sun 05:15:22 AM 39.7460 -80.2920 83° East 535 616 37,000  Level FlightAware ADS-B
Sun 05:16:02 AM 39.7580 -80.1640 83° East 536 617 37,000  Level FlightAware ADS-B
Sun 05:16:47 AM 39.7710 -80.0210 83° East 537 618 37,000  Level FlightAware ADS-B
Sun 05:17:27 AM 39.7830 -79.8910 83° East 538 619 37,000  Level FlightAware ADS-B
Sun 05:18:07 AM 39.7940 -79.7630 84° East 539 620 37,000  Level FlightAware ADS-B
Sun 05:18:52 AM 39.8070 -79.6180 83° East 539 620 37,000  Level FlightAware ADS-B
Sun 05:19:27 AM 39.8160 -79.5170 83° East 539 620 37,000  Level FlightAware ADS-B
Sun 05:20:12 AM 39.8300 -79.3610 83° East 538 619 37,000  Level FlightAware ADS-B
Sun 05:20:57 AM 39.8420 -79.2170 84° East 539 620 37,000  Level FlightAware ADS-B
Sun 05:21:37 AM 39.8530 -79.0880 84° East 539 620 37,000  Level FlightAware ADS-B
Sun 05:22:22 AM 39.8640 -78.9450 84° East 537 618 37,000  Level FlightAware ADS-B
Sun 05:23:02 AM 39.8750 -78.8140 84° East 536 617 37,000  Level FlightAware ADS-B
Sun 05:23:42 AM 39.8850 -78.6890 84° East 535 616 37,000  Level FlightAware ADS-B
Sun 05:24:27 AM 39.8970 -78.5450 84° East 532 612 37,000  Level FlightAware ADS-B
Sun 05:25:07 AM 39.9070 -78.4150 84° East 529 609 37,000  Level FlightAware ADS-B
Sun 05:25:52 AM 39.9180 -78.2770 84° East 522 601 37,000  Level FlightAware ADS-B
Sun 05:26:32 AM 39.9270 -78.1530 85° East 518 596 37,000  Level FlightAware ADS-B
Sun 05:27:12 AM 39.9360 -78.0250 85° East 513 590 37,000 -1,553 Level FlightAware ADS-B
Sun 05:27:57 AM 39.9460 -77.8880 85° East 520 598 34,800 -2,905 Descending FlightAware ADS-B
Sun 05:28:47 AM 39.9570 -77.7400 84° East 524 603 32,400 -2,653 Descending FlightAware ADS-B
Sun 05:29:32 AM 39.9650 -77.6230 85° East 518 596 30,600 -2,200 Descending FlightAware ADS-B
Sun 05:30:17 AM 39.9750 -77.4910 84° East 496 571 29,100 -1,976 Descending FlightAware ADS-B
Sun 05:30:57 AM 39.9820 -77.3850 85° East 482 555 27,800 -2,710 Descending FlightAware ADS-B
Sun 05:31:19 AM 39.9900 -77.2661 85° East 472 543 26,300 -2,830 Descending FlightAware ADS-B
Sun 05:31:50 AM 39.9959 -77.1800 85° East 459 528 25,300 -1,935 Descending FlightAware ADS-B
Sun 05:32:21 AM 40.0012 -77.0981 85° East 447 514 24,300 -1,967 Descending FlightAware ADS-B
Sun 05:32:51 AM 40.0064 -77.0179 85° East 437 503 23,300 -2,057 Descending FlightAware ADS-B
Sun 05:33:31 AM 40.0131 -76.9150 85° East 425 489 21,900 -2,113 Descending FlightAware ADS-B
Sun 05:34:02 AM 40.0182 -76.8360 85° East 417 480 20,800 -2,129 Descending FlightAware ADS-B
Sun 05:34:33 AM 40.0231 -76.7587 85° East 410 472 19,700 -1,900 Descending FlightAware ADS-B
Sun 05:35:02 AM 40.0275 -76.6883 85° East 400 460 18,900 -1,800 Descending FlightAware ADS-B
Sun 05:35:33 AM 40.0319 -76.6162 85° East 393 452 17,900 -1,967 Descending FlightAware ADS-B
Sun 05:36:03 AM 40.0363 -76.5457 85° East 387 445 16,900 -1,900 Descending FlightAware ADS-B
Sun 05:36:33 AM 40.0406 -76.4758 85° East 380 437 16,000 -1,862 Descending FlightAware ADS-B
Sun 05:37:01 AM 40.0445 -76.4113 85° East 376 433 15,100 -1,759 Descending FlightAware ADS-B
Sun 05:37:31 AM 40.0485 -76.3437 86° East 372 428 14,300 -1,672 Descending FlightAware ADS-B
Sun 05:38:02 AM 40.0523 -76.2765 86° East 368 423 13,400 -1,574 Descending FlightAware ADS-B
Sun 05:38:32 AM 40.0562 -76.2105 86° East 362 417 12,700 -1,500 Descending FlightAware ADS-B
Sun 05:39:02 AM 40.0601 -76.1453 86° East 355 409 11,900 -1,500 Descending FlightAware ADS-B
Sun 05:39:32 AM 40.0636 -76.0815 86° East 350 403 11,200 -1,500 Descending FlightAware ADS-B
Sun 05:40:02 AM 40.0673 -76.0183 86° East 345 397 10,400 -1,500 Descending FlightAware ADS-B
Sun 05:40:20 AM 40.0694 -75.9820 86° East 342 394 10,000 -1,273 Descending FlightAware ADS-B
Sun 05:40:35 AM 40.0710 -75.9512 86° East 333 383 9,700 -600 Descending FlightAware ADS-B
Sun 05:40:50 AM 40.0728 -75.9208 86° East 334 384 9,700  Level FlightAware ADS-B
Sun 05:41:06 AM 40.0746 -75.8900 86° East 339 390 9,700  Level FlightAware ADS-B
Sun 05:41:21 AM 40.0763 -75.8585 86° East 341 392 9,700  Level FlightAware ADS-B
Sun 05:41:37 AM 40.0780 -75.8261 86° East 341 392 9,700  Level FlightAware ADS-B
Sun 05:41:52 AM 40.0797 -75.7952 86° East 332 382 9,700 -214 Level FlightAware ADS-B
Sun 05:42:05 AM 40.0810 -75.7693 86° East 317 365 9,600 -300 Descending FlightAware ADS-B
Sun 05:42:12 AM 40.0813 -75.7571 88° East 309 356 9,600  Level FlightAware ADS-B
Sun 05:42:22 AM 40.0813 -75.7384 90° East 292 336 9,600 -720 Level FlightAware ADS-B
Sun 05:42:37 AM 40.0806 -75.7123 92° East 282 325 9,300 -1,161 Descending FlightAware ADS-B
Sun 05:42:53 AM 40.0795 -75.6858 93° East 278 320 9,000 -1,161 Descending FlightAware ADS-B
Sun 05:43:08 AM 40.0783 -75.6602 93° East 275 316 8,700 -1,286 Descending FlightAware ADS-B
Sun 05:43:21 AM 40.0772 -75.6387 94° East 273 314 8,400 -1,034 Descending FlightAware ADS-B
Sun 05:43:37 AM 40.0761 -75.6142 93° East 268 308 8,200 -968 Descending FlightAware ADS-B
Sun 05:43:52 AM 40.0749 -75.5902 94° East 264 304 7,900 -1,000 Descending FlightAware ADS-B
Sun 05:44:07 AM 40.0737 -75.5661 94° East 263 303 7,700 -800 Descending FlightAware ADS-B
Sun 05:44:22 AM 40.0724 -75.5417 94° East 263 303 7,500 -774 Descending FlightAware ADS-B
Sun 05:44:38 AM 40.0713 -75.5171 93° East 262 302 7,300 -774 Descending FlightAware ADS-B
Sun 05:44:53 AM 40.0701 -75.4929 94° East 261 300 7,100 -720 Descending FlightAware ADS-B
Sun 05:45:03 AM 40.0694 -75.4765 93° East 258 297 7,000 -692 Descending FlightAware ADS-B
Sun 05:45:19 AM 40.0683 -75.4525 93° East 258 297 6,800 -857 Descending FlightAware ADS-B
Sun 05:45:31 AM 40.0673 -75.4332 94° East 258 297 6,600 -889 Descending FlightAware ADS-B
Sun 05:45:46 AM 40.0662 -75.4098 94° East 257 296 6,400 -857 Descending FlightAware ADS-B
Sun 05:45:59 AM 40.0653 -75.3905 93° East 258 297 6,200 -750 Descending FlightAware ADS-B
Sun 05:46:10 AM 40.0643 -75.3730 94° East 257 296 6,100 -571 Descending FlightAware ADS-B
Sun 05:46:20 AM 40.0636 -75.3575 93° East 257 296 6,000 -800 Descending FlightAware ADS-B
Sun 05:46:40 AM 40.0621 -75.3275 94° East 257 296 5,700 -857 Descending FlightAware ADS-B
Sun 05:46:55 AM 40.0610 -75.3040 93° East 256 295 5,500 -774 Descending FlightAware ADS-B
Sun 05:47:11 AM 40.0596 -75.2797 94° East 257 296 5,300 -889 Descending FlightAware ADS-B
Sun 05:47:22 AM 40.0587 -75.2623 94° East 256 295 5,100 -783 Descending FlightAware ADS-B
Sun 05:47:34 AM 40.0577 -75.2434 94° East 252 290 5,000 -667 Descending FlightAware ADS-B
Sun 05:47:40 AM 40.0570 -75.2341 96° East 248 285 4,900 -1,091 Descending FlightAware ADS-B
Sun 05:47:45 AM 40.0560 -75.2272 101° East 246 283 4,800 -667 Descending FlightAware ADS-B
Sun 05:47:49 AM 40.0547 -75.2213 106° East 244 281 4,800 -632 Level FlightAware ADS-B
Sun 05:48:04 AM 40.0496 -75.2003 108° East 238 274 4,600 -968 Descending FlightAware ADS-B
Sun 05:48:20 AM 40.0444 -75.1793 108° East 235 270 4,300 -968 Descending FlightAware ADS-B
Sun 05:48:35 AM 40.0393 -75.1585 108° East 230 265 4,100 -727 Descending FlightAware ADS-B
Sun 05:48:53 AM 40.0338 -75.1354 107° East 225 259 3,900 -727 Descending FlightAware ADS-B
Sun 05:49:08 AM 40.0291 -75.1158 107° East 222 255 3,700 -387 Descending FlightAware ADS-B
Sun 05:49:24 AM 40.0245 -75.0961 107° East 217 250 3,700  Level FlightAware ADS-B
Sun 05:49:38 AM 40.0202 -75.0790 108° East 217 250 3,700  Level FlightAware ADS-B
Sun 05:49:44 AM 40.0170 -75.0725 123° Southeast 216 249 3,700  Level FlightAware ADS-B
Sun 05:49:48 AM 40.0137 -75.0682 135° Southeast 212 244 3,700  Level FlightAware ADS-B
Sun 05:49:55 AM 40.0085 -75.0638 147° Southeast 208 239 3,700 -600 Level FlightAware ADS-B
Sun 05:49:58 AM 40.0052 -75.0622 160° South 206 237 3,600 -857 Descending FlightAware ADS-B
Sun 05:50:02 AM 40.0020 -75.0609 163° South 204 235 3,600 -545 Level FlightAware ADS-B
Sun 05:50:09 AM 39.9953 -75.0590 168° South 202 232 3,500 -522 Descending FlightAware ADS-B
Sun 05:50:25 AM 39.9813 -75.0552 168° South 193 222 3,400 -581 Descending FlightAware ADS-B
Sun 05:50:40 AM 39.9684 -75.0514 167° South 184 212 3,200 -938 Descending FlightAware ADS-B
Sun 05:50:57 AM 39.9544 -75.0471 167° South 177 204 2,900 -1,000 Descending FlightAware ADS-B
Sun 05:51:04 AM 39.9488 -75.0455 168° South 174 200 2,800 -857 Descending FlightAware ADS-B
Sun 05:51:18 AM 39.9382 -75.0457 181° South 170 196 2,600 -632 Descending FlightAware ADS-B
Sun 05:51:23 AM 39.9344 -75.0467 191° South 169 194 2,600 -750 Level FlightAware ADS-B
Sun 05:51:26 AM 39.9317 -75.0476 194° South 168 193 2,500 -545 Descending FlightAware ADS-B
Sun 05:51:34 AM 39.9262 -75.0507 203° Southwest 167 192 2,500 -545 Level FlightAware ADS-B
Sun 05:51:37 AM 39.9241 -75.0524 212° Southwest 167 192 2,400 -667 Descending FlightAware ADS-B
Sun 05:51:52 AM 39.9143 -75.0613 215° Southwest 168 193 2,300 -500 Descending FlightAware ADS-B
Sun 05:52:01 AM 39.9092 -75.0661 216° Southwest 168 193 2,200 -500 Descending FlightAware ADS-B
Sun 05:52:04 AM 39.9070 -75.0689 224° Southwest 168 193 2,200 -600 Level FlightAware ADS-B
Sun 05:52:11 AM 39.9045 -75.0743 239° Southwest 168 193 2,100 -857 Descending FlightAware ADS-B
Sun 05:52:18 AM 39.9028 -75.0813 252° West 169 194 2,000 -923 Descending FlightAware ADS-B
Sun 05:52:24 AM 39.9018 -75.0870 257° West 170 196 1,900 -1,000 Descending FlightAware ADS-B
Sun 05:52:36 AM 39.8998 -75.0997 258° West 169 194 1,700 -1,034 Descending FlightAware ADS-B
Sun 05:52:53 AM 39.8966 -75.1152 255° West 154 177 1,400 -800 Descending FlightAware ADS-B
Sun 05:53:06 AM 39.8944 -75.1262 255° West 142 163 1,300 -621 Descending FlightAware ADS-B
Sun 05:53:22 AM 39.8921 -75.1384 256° West 123 142 1,100 -774 Descending FlightAware ADS-B
Sun 05:53:37 AM 39.8900 -75.1487 255° West 117 135 900 -600 Descending FlightAware ADS-B
Sun 05:53:52 AM 39.8880 -75.1591 256° West 114 131 800 -571 Descending FlightAware ADS-B
Sun 05:53:58 AM 39.8872 -75.1632 256° West 113 130 700 -667 Descending FlightAware ADS-B
Sun 05:54:10 AM 39.8856 -75.1708 255° West 114 131 600 -643 Descending FlightAware ADS-B
Sun 05:54:26 AM 39.8834 -75.1817 255° West 119 137 400 -600 Descending FlightAware ADS-B
Sun 05:54:40 AM 39.8814 -75.1916 255° West 124 143 300 -545 Descending FlightAware ADS-B
Sun 05:54:48 AM 39.8803 -75.1974 256° West 125 144 200 -750 Descending FlightAware ADS-B
Sun 05:54:59 AM 39.8786 -75.2059 255° West 124 143 -1,091 Descending FlightAware ADS-B
Sun 05:55:37 AM 39.8760 -75.2190 256° West 127 146  Level FlightAware ADS-B
Sun 05:56:02 AM 39.8730 -75.2360 257° West 127 146  Level FlightAware ADS-B

Login

Don't have an account? Register now (free) for customized features, flight alerts, and more!